地図

経路データ

SID SEASON NUMBER BASIN SUBBASIN NAME ISO_TIME NATURE LAT LON WMO_WIND WMO_PRES WMO_AGENCY TRACK_TYPE DIST2LAND LANDFALL IFLAG USA_AGENCY USA_ATCF_ID USA_LAT USA_LON USA_RECORD USA_STATUS USA_WIND USA_PRES USA_SSHS USA_R34_NE USA_R34_SE USA_R34_SW USA_R34_NW USA_R50_NE USA_R50_SE USA_R50_SW USA_R50_NW USA_R64_NE USA_R64_SE USA_R64_SW USA_R64_NW USA_POCI USA_ROCI USA_RMW USA_EYE TOKYO_LAT TOKYO_LON TOKYO_GRADE TOKYO_WIND TOKYO_PRES TOKYO_R50_DIR TOKYO_R50_LONG TOKYO_R50_SHORT TOKYO_R30_DIR TOKYO_R30_LONG TOKYO_R30_SHORT TOKYO_LAND CMA_LAT CMA_LON CMA_CAT CMA_WIND CMA_PRES HKO_LAT HKO_LON HKO_CAT HKO_WIND HKO_PRES NEWDELHI_LAT NEWDELHI_LON NEWDELHI_GRADE NEWDELHI_WIND NEWDELHI_PRES NEWDELHI_CI NEWDELHI_DP NEWDELHI_POCI REUNION_LAT REUNION_LON REUNION_TYPE REUNION_WIND REUNION_PRES REUNION_TNUM REUNION_CI REUNION_RMW REUNION_R34_NE REUNION_R34_SE REUNION_R34_SW REUNION_R34_NW REUNION_R50_NE REUNION_R50_SE REUNION_R50_SW REUNION_R50_NW REUNION_R64_NE REUNION_R64_SE REUNION_R64_SW REUNION_R64_NW BOM_LAT BOM_LON BOM_TYPE BOM_WIND BOM_PRES BOM_TNUM BOM_CI BOM_RMW BOM_R34_NE BOM_R34_SE BOM_R34_SW BOM_R34_NW BOM_R50_NE BOM_R50_SE BOM_R50_SW BOM_R50_NW BOM_R64_NE BOM_R64_SE BOM_R64_SW BOM_R64_NW BOM_ROCI BOM_POCI BOM_EYE BOM_POS_METHOD BOM_PRES_METHOD NADI_LAT NADI_LON NADI_CAT NADI_WIND NADI_PRES WELLINGTON_LAT WELLINGTON_LON WELLINGTON_WIND WELLINGTON_PRES DS824_LAT DS824_LON DS824_STAGE DS824_WIND DS824_PRES TD9636_LAT TD9636_LON TD9636_STAGE TD9636_WIND TD9636_PRES TD9635_LAT TD9635_LON TD9635_WIND TD9635_PRES TD9635_ROCI NEUMANN_LAT NEUMANN_LON NEUMANN_CLASS NEUMANN_WIND NEUMANN_PRES MLC_LAT MLC_LON MLC_CLASS MLC_WIND MLC_PRES USA_GUST BOM_GUST BOM_GUST_PER REUNION_GUST REUNION_GUST_PER USA_SEAHGT USA_SEARAD_NE USA_SEARAD_SE USA_SEARAD_SW USA_SEARAD_NW STORM_SPEED STORM_DIR
1869021S21053 1869 1 SI MM NOT_NAMED 1869-01-21 06:00:00 NR -21.2000 52.9500 reunion main 228 228 _____O____O___ -1 -20.9000 52.5000 99 9.90000 -21.5000 53.4000 7 3 144
1869021S21053 1869 1 SI MM NOT_NAMED 1869-01-21 09:00:00 NR -21.3061 53.0398 main 229 218 _____P____P___ -1 -21.0042 52.5954 99 -21.6079 53.4842 7 3 142
1869021S21053 1869 1 SI MM NOT_NAMED 1869-01-21 12:00:00 NR -21.4103 53.1275 main 220 209 _____P____P___ -1 -21.1080 52.6901 99 -21.7126 53.5648 7 3 142
1869021S21053 1869 1 SI MM NOT_NAMED 1869-01-21 15:00:00 NR -21.5110 53.2107 main 211 204 _____P____P___ -1 -21.2110 52.7834 99 -21.8110 53.6380 7 2 143
1869021S21053 1869 1 SI MM NOT_NAMED 1869-01-21 18:00:00 NR -21.6064 53.2872 main 204 198 _____P____O___ -1 -21.3128 52.8744 99 -21.9000 53.7000 7 2 143
1869021S21053 1869 1 SI MM NOT_NAMED 1869-01-21 21:00:00 NR -21.6955 53.3558 main 198 198 _____P____P___ -1 -21.4129 52.9624 99 -21.9781 53.7492 7 2 145
1869021S21053 1869 1 SI MM NOT_NAMED 1869-01-22 00:00:00 NR -21.7805 53.4196 main 202 192 _____P____P___ -1 -21.5111 53.0465 99 -22.0499 53.7926 7 2 145
1869021S21053 1869 1 SI MM NOT_NAMED 1869-01-22 03:00:00 NR -21.8644 53.4829 main 197 197 _____P____P___ -1 -21.6069 53.1260 99 -22.1218 53.8398 7 2 146
1869021S21053 1869 1 SI MM NOT_NAMED 1869-01-22 06:00:00 NR -21.9500 53.5500 reunion main 188 192 _____O____O___ -1 -21.7000 53.2000 99 9.90000 -22.2000 53.9000 7 2 144
1869021S21053 1869 1 SI MM NOT_NAMED 1869-01-22 09:00:00 NR -22.0415 53.6269 main 192 187 _____P____P___ -1 -21.7902 53.2681 99 -22.2928 53.9856 7 2 141
1869021S21053 1869 1 SI MM NOT_NAMED 1869-01-22 12:00:00 NR -22.1353 53.7083 main 187 184 _____P____P___ -1 -21.8780 53.3316 99 -22.3925 54.0850 7 2 141
1869021S21053 1869 1 SI MM NOT_NAMED 1869-01-22 15:00:00 NR -22.2301 53.7918 main 184 182 _____P____P___ -1 -21.9643 53.3918 99 -22.4960 54.1919 7 2 141
1869021S21053 1869 1 SI MM NOT_NAMED 1869-01-22 18:00:00 NR -22.3249 53.8752 main 182 182 _____P____O___ -1 -22.0498 53.4504 99 -22.6000 54.3000 7 2 141
1869021S21053 1869 1 SI MM NOT_NAMED 1869-01-22 21:00:00 NR -22.4156 53.9525 main 181 181 _____P____P___ -1 -22.1354 53.5090 99 -22.6959 54.3960 7 2 142
1869021S21053 1869 1 SI MM NOT_NAMED 1869-01-23 00:00:00 NR -22.5071 54.0309 main 189 182 _____P____P___ -1 -22.2217 53.5691 99 -22.7924 54.4926 7 2 141
1869021S21053 1869 1 SI MM NOT_NAMED 1869-01-23 03:00:00 NR -22.6012 54.1126 main 190 184 _____P____P___ -1 -22.3097 53.6322 99 -22.8928 54.5929 7 2 140
1869021S21053 1869 1 SI MM NOT_NAMED 1869-01-23 06:00:00 NR -22.7000 54.2000 reunion main 193 193 _____O____O___ -1 -22.4000 53.7000 99 9.90000 -23.0000 54.7000 7 3 140
1869021S21053 1869 1 SI MM NOT_NAMED 1869-01-23 09:00:00 NR -22.8037 54.2923 main 196 196 _____P____P___ -1 -22.4895 53.7707 99 -23.1178 54.8138 7 3 140
1869021S21053 1869 1 SI MM NOT_NAMED 1869-01-23 12:00:00 NR -22.9115 54.3899 main 201 201 _____P____P___ -1 -22.5805 53.8447 99 -23.2425 54.9351 7 3 139
1869021S21053 1869 1 SI MM NOT_NAMED 1869-01-23 15:00:00 NR -23.0223 54.4933 main 207 207 _____P____P___ -1 -22.6736 53.9228 99 -23.3709 55.0638 7 3 138
1869021S21053 1869 1 SI MM NOT_NAMED 1869-01-23 18:00:00 NR -23.1349 54.6028 main 213 213 _____P____O___ -1 -22.7698 54.0056 99 -23.5000 55.2000 7 3 138
1869021S21053 1869 1 SI MM NOT_NAMED 1869-01-23 21:00:00 NR -23.2473 54.7164 main 221 221 _____P____P___ -1 -22.8697 54.0939 99 -23.6250 55.3388 7 3 136
1869021S21053 1869 1 SI MM NOT_NAMED 1869-01-24 00:00:00 NR -23.3621 54.8369 main 238 234 _____P____P___ -1 -22.9742 54.1886 99 -23.7499 55.4851 7 3 136
1869021S21053 1869 1 SI MM NOT_NAMED 1869-01-24 03:00:00 NR -23.4795 54.9646 main 242 242 _____P____P___ -1 -23.0840 54.2904 99 -23.8749 55.6388 7 3 135
1869021S21053 1869 1 SI MM NOT_NAMED 1869-01-24 06:00:00 NR -23.6000 55.1000 reunion main 251 249 _____O____O___ -1 -23.2000 54.4000 99 9.90000 -24.0000 55.8000 7 4 135
1869021S21053 1869 1 SI MM NOT_NAMED 1869-01-24 09:00:00 NR -23.7301 55.2406 main 260 258 _____P____P___ -1 -23.3311 54.5093 99 -24.1291 55.9719 7 4 135
1869021S21053 1869 1 SI MM NOT_NAMED 1869-01-24 12:00:00 NR -23.8635 55.3879 main 280 279 _____P____P___ -1 -23.4695 54.6258 99 -24.2575 56.1500 7 4 134
1869021S21053 1869 1 SI MM NOT_NAMED 1869-01-24 15:00:00 NR -23.9973 55.5391 main 290 290 _____P____P___ -1 -23.6124 54.7501 99 -24.3822 56.3281 7 4 134
1869021S21053 1869 1 SI MM NOT_NAMED 1869-01-24 18:00:00 NR -24.1286 55.6912 main 301 301 _____P____O___ -1 -23.7571 54.8824 99 -24.5000 56.5000 7 4 133
1869021S21053 1869 1 SI MM NOT_NAMED 1869-01-24 21:00:00 NR -24.2549 55.8420 main 324 324 _____P____P___ -1 -23.9010 55.0232 99 -24.6088 56.6609 7 3 140
1869021S21053 1869 1 SI MM NOT_NAMED 1869-01-25 00:00:00 NR -24.3279 55.8755 main 325 325 _____P____P___ -1 -24.0412 55.1728 99 -24.7101 56.8124 7 1 162
1869021S21053 1869 1 SI MM NOT_NAMED 1869-01-25 03:00:00 NR -24.3855 55.8736 main 336 335 _____P____P___ -1 -24.1751 55.3316 99 -24.8063 56.9577 7 1 208
1869021S21053 1869 1 SI MM NOT_NAMED 1869-01-25 06:00:00 NR -24.4200 55.8200 reunion main 335 335 _____O____O___ -1 -24.3000 55.5000 99 9.90000 -24.9000 57.1000 7 2 260
1869021S21053 1869 1 SI MM NOT_NAMED 1869-01-25 09:00:00 NR -24.4160 55.6920 main 335 335 _____P________ -1 -24.4160 55.6920 99 7 1 147
1869021S21053 1869 1 SI MM NOT_NAMED 1869-01-25 12:00:00 NR -24.5247 55.8963 main 347 347 _____P________ -1 -24.5247 55.8963 99 7 4 119
1869021S21053 1869 1 SI MM NOT_NAMED 1869-01-25 15:00:00 NR -24.6256 56.1080 main 361 361 _____P________ -1 -24.6256 56.1080 99 7 4 117
1869021S21053 1869 1 SI MM NOT_NAMED 1869-01-25 18:00:00 NR -24.7184 56.3221 main 375 375 _____P________ -1 -24.7184 56.3221 99 4 115
1869021S21053 1869 1 SI MM NOT_NAMED 1869-01-25 21:00:00 NR -24.8026 56.5334 main 391 391 _____P________ -1 -24.8026 56.5334 99 4 113
1869021S21053 1869 1 SI MM NOT_NAMED 1869-01-26 00:00:00 NR -24.8778 56.7369 main 407 407 _____P________ -1 -24.8778 56.7369 99 4 111
1869021S21053 1869 1 SI MM NOT_NAMED 1869-01-26 03:00:00 NR -24.9437 56.9274 main 413 413 _____P________ -1 -24.9437 56.9274 99 4 110
1869021S21053 1869 1 SI MM NOT_NAMED 1869-01-26 06:00:00 NR -25.0000 57.1000 reunion main 430 430 _____O________ -1 -25.0000 57.1000 99 9.90000 3 109
1869021S21053 1869 1 SI MM NOT_NAMED 1869-01-26 09:00:00 NR -25.0466 57.2508 main 438 438 _____P________ -1 -25.0466 57.2508 99 3 108
1869021S21053 1869 1 SI MM NOT_NAMED 1869-01-26 12:00:00 NR -25.0845 57.3812 main 452 452 _____P________ -1 -25.0845 57.3812 99 2 107
1869021S21053 1869 1 SI MM NOT_NAMED 1869-01-26 15:00:00 NR -25.1150 57.4943 main 456 456 _____P________ -1 -25.1150 57.4943 99 2 106
1869021S21053 1869 1 SI MM NOT_NAMED 1869-01-26 18:00:00 NR -25.1394 57.5929 main 461 461 _____P________ -1 -25.1394 57.5929 99 2 105
1869021S21053 1869 1 SI MM NOT_NAMED 1869-01-26 21:00:00 NR -25.1588 57.6799 main 475 475 _____P________ -1 -25.1588 57.6799 99 2 103
1869021S21053 1869 1 SI MM NOT_NAMED 1869-01-27 00:00:00 NR -25.1746 57.7581 main 480 480 _____P________ -1 -25.1746 57.7581 99 1 102
1869021S21053 1869 1 SI MM NOT_NAMED 1869-01-27 03:00:00 NR -25.1879 57.8305 main 480 480 _____P________ -1 -25.1879 57.8305 99 1 101
1869021S21053 1869 1 SI MM NOT_NAMED 1869-01-27 06:00:00 NR -25.2000 57.9000 reunion main 485 _____O________ -1 -25.2000 57.9000 99 9.90000 1 100

IBTrACS Databaseについて

本データベースは、米国NOAAが公開する1842年以降の世界の熱帯低気圧のベストトラックデータアーカイブInternational Best Track Archive for Climate Stewardship (IBTrACS)を、ウェブで閲覧しやすい形式に変換したものです。

最終更新日:2021-12-01